createdAt,value
2022-10-20T00:00:23.567Z,75889.31
2022-10-20T00:02:50.744Z,75885.19
2022-10-20T00:05:19.006Z,75885.19
2022-10-20T00:07:46.156Z,75891.34
2022-10-20T00:10:13.370Z,75881.09
2022-10-20T00:12:40.438Z,75889.31
2022-10-20T00:15:09.385Z,75889.31
2022-10-20T00:17:36.522Z,75885.19
2022-10-20T00:20:04.012Z,75891.34
2022-10-20T00:22:31.780Z,75883.13
2022-10-20T00:24:58.927Z,75885.19
2022-10-20T00:27:26.005Z,75891.34
2022-10-20T00:29:53.149Z,75885.19
2022-10-20T00:32:20.245Z,75872.84
2022-10-20T00:34:47.323Z,75874.91
2022-10-20T00:37:14.601Z,75870.81
2022-10-20T00:39:41.760Z,75872.84
2022-10-20T00:42:15.568Z,75872.84
2022-10-20T00:44:44.195Z,75872.84
2022-10-20T00:47:18.210Z,75864.63
2022-10-20T00:49:45.316Z,75864.63
2022-10-20T00:52:12.542Z,75852.31
2022-10-20T00:54:41.193Z,75848.19
2022-10-20T00:57:08.382Z,75846.13
2022-10-20T00:59:35.527Z,75854.38
2022-10-20T01:02:02.821Z,75852.31
2022-10-20T01:04:30.896Z,75839.97
2022-10-20T01:06:58.508Z,75852.31
2022-10-20T01:09:25.536Z,75852.31
2022-10-20T01:12:15.396Z,75846.13
2022-10-20T01:14:43.293Z,75839.97
2022-10-20T01:17:10.290Z,75835.88
2022-10-20T01:19:46.562Z,75831.75
2022-10-20T01:22:33.903Z,75839.97
2022-10-20T01:25:19.569Z,75833.81
2022-10-20T01:27:47.342Z,75835.88
2022-10-20T01:30:15.433Z,75827.66
2022-10-20T01:32:56.677Z,75817.38
2022-10-20T01:35:42.276Z,75831.75
2022-10-20T01:38:12.257Z,75839.97
2022-10-20T01:40:54.838Z,75837.91
2022-10-20T01:43:21.947Z,75819.44
2022-10-20T01:45:49.400Z,75815.31
2022-10-20T01:48:17.070Z,75819.44
2022-10-20T01:50:44.122Z,75817.38
2022-10-20T01:53:11.205Z,75811.22
2022-10-20T01:55:38.421Z,75819.44
2022-10-20T01:58:08.424Z,75823.53
2022-10-20T02:00:36.095Z,75813.25
2022-10-20T02:03:06.232Z,75811.22
2022-10-20T02:05:34.684Z,75811.22
2022-10-20T02:08:10.650Z,75813.25
2022-10-20T02:10:47.637Z,75819.44
2022-10-20T02:13:17.447Z,75823.53
2022-10-20T02:15:46.208Z,75819.44
2022-10-20T02:18:15.767Z,75813.25
2022-10-20T02:20:44.204Z,75811.22
2022-10-20T02:23:11.235Z,75809.16
2022-10-20T02:25:38.405Z,75813.25
2022-10-20T02:28:05.914Z,75811.22
2022-10-20T02:30:33.449Z,75807.09
2022-10-20T02:33:00.479Z,75807.09
2022-10-20T02:35:29.664Z,75807.09
2022-10-20T02:37:57.179Z,75807.09
2022-10-20T02:40:24.365Z,75815.31
2022-10-20T02:42:51.597Z,75811.22
2022-10-20T02:45:18.791Z,75811.22
2022-10-20T02:47:45.902Z,75815.31
2022-10-20T02:50:12.934Z,75807.09
2022-10-20T02:52:41.356Z,75819.44
2022-10-20T02:55:08.542Z,75811.22
2022-10-20T02:57:37.683Z,75802.97
2022-10-20T03:00:05.868Z,75788.59
2022-10-20T03:02:32.934Z,75786.53
2022-10-20T03:05:00.377Z,75798.88
2022-10-20T03:07:27.489Z,75794.75
2022-10-20T03:09:55.981Z,75778.31
2022-10-20T03:12:23.053Z,75774.22
2022-10-20T03:14:50.216Z,75790.66
2022-10-20T03:17:17.903Z,75805.03
2022-10-20T03:19:44.946Z,75796.81
2022-10-20T03:22:11.970Z,75802.97
2022-10-20T03:24:39.089Z,75802.97
2022-10-20T03:27:06.120Z,75811.22
2022-10-20T03:29:33.499Z,75811.22
2022-10-20T03:32:00.648Z,75811.22
2022-10-20T03:34:31.367Z,75817.38
2022-10-20T03:36:58.452Z,75827.66
2022-10-20T03:39:25.620Z,75827.66
2022-10-20T03:41:52.757Z,75835.88
2022-10-20T03:44:19.912Z,75825.59
2022-10-20T03:46:47.021Z,75839.97
2022-10-20T03:49:16.319Z,75833.81
2022-10-20T03:51:43.534Z,75835.88
2022-10-20T03:54:10.747Z,75831.75
2022-10-20T03:56:38.352Z,75831.75
2022-10-20T03:59:05.426Z,75827.66
2022-10-20T04:01:32.771Z,75835.88
2022-10-20T04:03:59.934Z,75831.75
2022-10-20T04:06:27.031Z,75835.88
2022-10-20T04:08:54.110Z,75835.88
2022-10-20T04:11:21.986Z,75835.88
2022-10-20T04:13:49.036Z,75819.44
2022-10-20T04:16:16.082Z,75809.16
2022-10-20T04:18:43.606Z,75802.97
2022-10-20T04:21:10.884Z,75800.94
2022-10-20T04:23:39.109Z,75794.75
2022-10-20T04:26:13.230Z,75786.53
2022-10-20T04:28:41.263Z,75788.59
2022-10-20T04:31:08.419Z,75790.66
2022-10-20T04:33:35.560Z,75782.44
2022-10-20T04:36:04.053Z,75778.31
2022-10-20T04:38:31.291Z,75786.53
2022-10-20T04:41:01.777Z,75782.44
2022-10-20T04:43:31.955Z,75790.66
2022-10-20T04:46:09.205Z,75794.75
2022-10-20T04:48:37.329Z,75794.75
2022-10-20T04:51:05.552Z,75802.97
2022-10-20T04:53:32.684Z,75794.75
2022-10-20T04:55:59.804Z,75796.81
2022-10-20T04:58:26.868Z,75782.44
2022-10-20T05:00:53.916Z,75782.44
2022-10-20T05:03:21.186Z,75768.03
2022-10-20T05:05:48.212Z,75770.09
2022-10-20T05:08:15.338Z,75778.31
2022-10-20T05:10:42.460Z,75766.00
2022-10-20T05:13:09.794Z,75755.72
2022-10-20T05:15:36.887Z,75766.00
2022-10-20T05:18:08.884Z,75757.78
2022-10-20T05:20:45.938Z,75753.66
2022-10-20T05:23:24.476Z,75770.09
2022-10-20T05:25:51.492Z,75770.09
2022-10-20T05:28:18.742Z,75788.59
2022-10-20T05:30:45.950Z,75794.75
2022-10-20T05:33:12.976Z,75815.31
2022-10-20T05:35:40.284Z,75815.31
2022-10-20T05:38:07.415Z,75819.44
2022-10-20T05:40:36.218Z,75823.53
2022-10-20T05:43:03.293Z,75815.31
2022-10-20T05:45:30.351Z,75827.66
2022-10-20T05:47:57.658Z,75827.66
2022-10-20T05:50:24.734Z,75848.19
2022-10-20T05:52:52.165Z,75839.97
2022-10-20T05:55:19.226Z,75848.19
2022-10-20T05:57:48.701Z,75862.59
2022-10-20T06:00:16.549Z,75874.91
2022-10-20T06:02:43.709Z,75891.34
2022-10-20T06:05:11.041Z,75909.84
2022-10-20T06:07:38.350Z,75930.41
2022-10-20T06:10:05.802Z,75934.53
2022-10-20T06:12:33.379Z,75955.06
2022-10-20T06:15:00.840Z,75955.06
2022-10-20T06:17:28.089Z,75971.50
2022-10-20T06:19:55.426Z,75996.19
2022-10-20T06:22:22.483Z,76002.34
2022-10-20T06:24:49.564Z,76037.28
2022-10-20T06:27:16.577Z,76033.19
2022-10-20T06:29:43.765Z,76053.72
2022-10-20T06:32:10.833Z,76057.84
2022-10-20T06:34:38.066Z,76086.63
2022-10-20T06:37:05.192Z,76084.56
2022-10-20T06:39:32.233Z,76094.84
2022-10-20T06:41:59.413Z,76103.06
2022-10-20T06:44:27.107Z,76115.38
2022-10-20T06:46:54.769Z,76123.63
2022-10-20T06:49:22.420Z,76131.84
2022-10-20T06:51:49.837Z,76144.16
2022-10-20T06:54:17.112Z,76140.06
2022-10-20T06:56:44.583Z,76152.38
2022-10-20T06:59:13.062Z,76168.84
2022-10-20T07:01:40.401Z,76168.84
2022-10-20T07:04:11.462Z,76181.16
2022-10-20T07:06:38.962Z,76201.72
2022-10-20T07:09:08.383Z,76214.06
2022-10-20T07:11:36.049Z,76216.09
2022-10-20T07:14:04.425Z,76230.50
2022-10-20T07:16:32.252Z,76222.28
2022-10-20T07:18:59.876Z,76214.06
2022-10-20T07:21:32.412Z,76218.16
2022-10-20T07:24:03.731Z,76218.16
2022-10-20T07:26:31.628Z,76201.72
2022-10-20T07:28:59.089Z,76197.59
2022-10-20T07:31:27.361Z,76205.81
2022-10-20T07:34:07.232Z,76228.44
2022-10-20T07:36:41.771Z,76246.94
2022-10-20T07:39:10.103Z,76253.09
2022-10-20T07:41:37.278Z,76255.16
2022-10-20T07:44:06.527Z,76246.94
2022-10-20T07:46:33.717Z,76255.16
2022-10-20T07:49:23.915Z,76251.03
2022-10-20T07:51:48.473Z,76242.81
2022-10-20T07:54:15.492Z,76242.81
2022-10-20T07:56:43.107Z,76244.88
2022-10-20T07:59:10.827Z,76230.50
2022-10-20T08:01:38.130Z,76230.50
2022-10-20T08:04:08.583Z,76230.50
2022-10-20T08:06:36.113Z,76226.38
2022-10-20T08:09:03.828Z,76230.50
2022-10-20T08:11:31.187Z,76244.88
2022-10-20T08:13:58.335Z,76236.66
2022-10-20T08:16:52.056Z,76246.94
2022-10-20T08:22:01.936Z,76242.81
2022-10-20T08:24:29.084Z,76273.66
2022-10-20T08:26:56.314Z,76277.78
2022-10-20T08:29:23.492Z,76279.81
2022-10-20T08:31:50.500Z,76279.81
2022-10-20T08:34:17.600Z,76267.50
2022-10-20T08:36:44.687Z,76267.50
2022-10-20T08:39:11.753Z,76283.94
2022-10-20T08:42:07.084Z,76290.09
2022-10-20T08:44:30.443Z,76275.72
2022-10-20T08:46:57.559Z,76273.66
2022-10-20T08:49:25.479Z,76275.72
2022-10-20T08:51:52.796Z,76281.88
2022-10-20T08:54:20.618Z,76279.81
2022-10-20T08:56:47.642Z,76288.03
2022-10-20T08:59:18.009Z,76292.16
2022-10-20T09:01:45.153Z,76304.50
2022-10-20T09:04:14.297Z,76308.59
2022-10-20T09:06:42.014Z,76263.38
2022-10-20T09:09:10.067Z,76283.94
2022-10-20T09:11:40.399Z,76296.28
2022-10-20T09:14:08.460Z,76320.94
2022-10-20T09:16:55.382Z,76323.00
2022-10-20T09:19:27.297Z,76310.66
2022-10-20T09:21:58.553Z,76302.44
2022-10-20T09:24:27.352Z,76335.31
2022-10-20T09:26:59.496Z,76333.28
2022-10-20T09:29:37.199Z,76320.94
2022-10-20T09:32:34.336Z,76296.28
2022-10-20T09:35:17.054Z,76310.66
2022-10-20T09:37:45.996Z,76304.50
2022-10-20T09:40:16.325Z,76327.09
2022-10-20T09:43:03.697Z,76337.38
2022-10-20T09:45:31.911Z,76345.59
2022-10-20T09:48:04.195Z,76345.59
2022-10-20T09:50:33.516Z,76345.59
2022-10-20T09:53:00.734Z,76341.50
2022-10-20T09:55:46.348Z,76329.16
2022-10-20T09:58:19.403Z,76292.16
2022-10-20T10:00:47.683Z,76283.94
2022-10-20T10:03:20.927Z,76314.78
2022-10-20T10:05:54.894Z,76349.72
2022-10-20T10:08:22.779Z,76364.09
2022-10-20T10:11:00.289Z,76349.72
2022-10-20T10:13:27.923Z,76343.53
2022-10-20T10:16:08.133Z,76349.72
2022-10-20T10:18:36.231Z,76349.72
2022-10-20T10:21:06.777Z,76394.94
2022-10-20T10:23:36.456Z,76384.66
2022-10-20T10:26:03.702Z,76415.50
2022-10-20T10:28:37.659Z,76431.94
2022-10-20T10:31:06.046Z,76431.94
2022-10-20T10:33:36.142Z,76427.81
2022-10-20T10:36:03.546Z,76448.38
2022-10-20T10:38:30.890Z,76444.28
2022-10-20T10:41:16.583Z,76448.38
2022-10-20T10:43:46.266Z,76477.16
2022-10-20T10:46:26.143Z,76497.72
2022-10-20T10:49:22.800Z,76493.59
2022-10-20T10:51:49.912Z,76501.81
2022-10-20T10:54:23.175Z,76479.22
2022-10-20T10:56:50.942Z,76481.28
2022-10-20T10:59:18.093Z,76475.09
2022-10-20T11:02:00.358Z,76477.16
2022-10-20T11:04:47.285Z,76477.16
2022-10-20T11:07:14.506Z,76491.53
2022-10-20T11:09:47.760Z,76475.09
2022-10-20T11:12:20.077Z,76485.38
2022-10-20T11:14:51.093Z,76522.38
2022-10-20T11:17:21.947Z,76522.38
2022-10-20T11:19:58.342Z,76538.81
2022-10-20T11:22:31.307Z,76555.28
2022-10-20T11:25:18.580Z,76547.06
2022-10-20T11:27:46.045Z,76592.28
2022-10-20T11:30:21.142Z,76588.16
2022-10-20T11:32:54.712Z,76586.09
2022-10-20T11:35:35.809Z,76598.44
2022-10-20T11:38:15.731Z,76594.31
2022-10-20T11:40:49.191Z,76602.56
2022-10-20T11:43:25.343Z,76625.16
2022-10-20T11:45:56.196Z,76653.94
2022-10-20T11:48:42.798Z,76666.28
2022-10-20T11:51:19.118Z,76664.22
2022-10-20T11:54:04.928Z,76653.94
2022-10-20T11:56:52.196Z,76633.38
2022-10-20T11:59:19.246Z,76625.16
2022-10-20T12:01:46.404Z,76641.59
2022-10-20T12:04:33.937Z,76641.59
2022-10-20T12:07:13.977Z,76645.72
2022-10-20T12:10:00.393Z,76629.28
2022-10-20T12:12:39.063Z,76637.50
2022-10-20T12:15:19.766Z,76621.06
2022-10-20T12:17:47.637Z,76629.28
2022-10-20T12:20:20.786Z,76629.28
2022-10-20T12:22:48.379Z,76625.16
2022-10-20T12:25:20.338Z,76629.28
2022-10-20T12:27:47.730Z,76621.06
2022-10-20T12:30:38.190Z,76621.06
2022-10-20T12:33:11.644Z,76621.06
2022-10-20T12:36:10.998Z,76604.59
2022-10-20T12:38:38.350Z,76600.50
2022-10-20T12:41:07.954Z,76592.28
2022-10-20T12:43:45.285Z,76584.06
2022-10-20T12:46:15.437Z,76596.38
2022-10-20T12:48:45.381Z,76579.94
2022-10-20T12:51:17.858Z,76588.16
2022-10-20T12:53:45.427Z,76579.94
2022-10-20T12:56:14.391Z,76571.72
2022-10-20T12:59:00.272Z,76571.72
2022-10-20T13:01:28.639Z,76565.56
2022-10-20T13:03:55.831Z,76575.81
2022-10-20T13:06:22.876Z,76579.94
2022-10-20T13:09:10.463Z,76567.59
2022-10-20T13:11:39.001Z,76563.50
2022-10-20T13:14:12.527Z,76559.38
2022-10-20T13:16:40.828Z,76571.72
2022-10-20T13:19:07.895Z,76563.50
2022-10-20T13:21:36.508Z,76569.66
2022-10-20T13:24:10.860Z,76567.59
2022-10-20T13:26:43.645Z,76555.28
2022-10-20T13:29:11.794Z,76555.28
2022-10-20T13:31:45.005Z,76567.59
2022-10-20T13:34:30.395Z,76563.50
2022-10-20T13:37:00.606Z,76555.28
2022-10-20T13:39:57.140Z,76559.38
2022-10-20T13:42:39.932Z,76565.56
2022-10-20T13:45:26.047Z,76563.50
2022-10-20T13:47:59.330Z,76567.59
2022-10-20T13:50:33.526Z,76555.28
2022-10-20T13:53:04.663Z,76538.81
2022-10-20T13:55:50.864Z,76532.66
2022-10-20T13:58:20.109Z,76540.88
2022-10-20T14:00:55.397Z,76547.06
2022-10-20T14:03:22.609Z,76534.72
2022-10-20T14:05:49.958Z,76557.31
2022-10-20T14:08:21.202Z,76563.50
2022-10-20T14:10:50.340Z,76563.50
2022-10-20T14:13:18.529Z,76567.59
2022-10-20T14:15:53.494Z,76567.59
2022-10-20T14:18:30.695Z,76561.44
2022-10-20T14:21:03.035Z,76579.94
2022-10-20T14:23:41.965Z,76569.66
2022-10-20T14:26:18.864Z,76575.81
2022-10-20T14:28:46.004Z,76563.50
2022-10-20T14:31:13.891Z,76579.94
2022-10-20T14:33:42.667Z,76571.72
2022-10-20T14:36:23.030Z,76575.81
2022-10-20T14:38:51.216Z,76584.06
2022-10-20T14:41:28.577Z,76573.78
2022-10-20T14:44:05.223Z,76586.09
2022-10-20T14:46:35.925Z,76586.09
2022-10-20T14:49:03.072Z,76584.06
2022-10-20T14:51:40.899Z,76596.38
2022-10-20T14:54:20.599Z,76604.59
2022-10-20T14:57:14.143Z,76592.28
2022-10-20T14:59:50.142Z,76608.72
2022-10-20T15:02:19.380Z,76608.72
2022-10-20T15:04:47.550Z,76612.84
2022-10-20T15:07:22.393Z,76608.72
2022-10-20T15:09:50.388Z,76629.28
2022-10-20T15:12:18.312Z,76637.50
2022-10-20T15:14:50.780Z,76645.72
2022-10-20T15:17:31.090Z,76645.72
2022-10-20T15:19:58.515Z,76641.59
2022-10-20T15:22:25.529Z,76651.88
2022-10-20T15:24:53.141Z,76645.72
2022-10-20T15:27:20.590Z,76651.88
2022-10-20T15:29:48.848Z,76658.06
2022-10-20T15:32:16.085Z,76658.06
2022-10-20T15:34:43.221Z,76662.16
2022-10-20T15:37:10.343Z,76662.16
2022-10-20T15:39:37.939Z,76672.44
2022-10-20T15:42:11.069Z,76674.50
2022-10-20T15:44:38.276Z,76670.38
2022-10-20T15:47:05.596Z,76674.50
2022-10-20T15:49:32.870Z,76680.66
2022-10-20T15:52:00.474Z,76682.72
2022-10-20T15:54:27.608Z,76682.72
2022-10-20T15:56:54.775Z,76678.63
2022-10-20T15:59:22.017Z,76684.78
2022-10-20T16:01:49.153Z,76688.91
2022-10-20T16:04:22.407Z,76693.00
2022-10-20T16:06:52.997Z,76699.16
2022-10-20T16:09:20.697Z,76686.84
2022-10-20T16:11:47.812Z,76684.78
2022-10-20T16:14:17.768Z,76695.06
2022-10-20T16:16:45.397Z,76707.41
2022-10-20T16:19:13.716Z,76709.44
2022-10-20T16:21:41.363Z,76703.28
2022-10-20T16:24:08.504Z,76686.84
2022-10-20T16:26:35.531Z,76707.41
2022-10-20T16:29:02.721Z,76709.44
2022-10-20T16:31:29.869Z,76717.66
2022-10-20T16:33:58.816Z,76707.41
2022-10-20T16:36:25.942Z,76725.91
2022-10-20T16:38:56.911Z,76715.63
2022-10-20T16:41:24.191Z,76715.63
2022-10-20T16:43:51.261Z,76711.50
2022-10-20T16:46:18.668Z,76709.44
2022-10-20T16:48:47.996Z,76717.66
2022-10-20T16:51:16.238Z,76715.63
2022-10-20T16:53:43.393Z,76715.63
2022-10-20T16:56:13.983Z,76727.94
2022-10-20T16:58:44.660Z,76730.00
2022-10-20T17:01:12.329Z,76715.63
2022-10-20T17:06:16.383Z,76727.94
2022-10-20T17:08:47.265Z,76736.16
2022-10-20T17:11:15.227Z,76723.84
2022-10-20T17:13:45.665Z,76732.06
2022-10-20T17:16:13.570Z,76725.91
2022-10-20T17:18:42.794Z,76736.16
2022-10-20T17:21:10.111Z,76742.34
2022-10-20T17:23:41.632Z,76736.16
2022-10-20T17:26:14.600Z,76727.94
2022-10-20T17:28:41.630Z,76730.00
2022-10-20T17:31:09.525Z,76740.28
2022-10-20T17:33:36.995Z,76734.13
2022-10-20T17:36:04.271Z,76736.16
2022-10-20T17:38:32.031Z,76744.41
2022-10-20T17:41:05.222Z,76732.06
2022-10-20T17:43:32.834Z,76744.41
2022-10-20T17:46:00.632Z,76730.00
2022-10-20T17:48:27.994Z,76742.34
2022-10-20T17:50:58.983Z,76744.41
2022-10-20T17:53:26.016Z,76748.50
2022-10-20T17:55:53.028Z,76748.50
2022-10-20T17:58:20.061Z,76756.72
2022-10-20T18:00:56.037Z,76756.72
2022-10-20T18:03:24.378Z,76773.19
2022-10-20T18:05:51.472Z,76760.84
2022-10-20T18:08:18.512Z,76764.97
2022-10-20T18:10:53.982Z,76758.78
2022-10-20T18:13:21.964Z,76769.06
2022-10-20T18:15:49.290Z,76756.72
2022-10-20T18:18:16.364Z,76764.97
2022-10-20T18:20:53.769Z,76764.97
2022-10-20T18:23:21.443Z,76746.44
2022-10-20T18:25:49.671Z,76760.84
2022-10-20T18:30:48.849Z,76760.84
2022-10-20T18:33:15.926Z,76762.91
2022-10-20T18:35:42.972Z,76760.84
2022-10-20T18:38:10.087Z,76760.84
2022-10-20T18:40:37.165Z,76769.06
2022-10-20T18:43:04.697Z,76787.56
2022-10-20T18:45:31.812Z,76777.28
2022-10-20T18:47:58.854Z,76769.06
2022-10-20T18:50:26.073Z,76777.28
2022-10-20T18:52:53.976Z,76785.50
2022-10-20T18:55:21.015Z,76787.56
2022-10-20T18:57:48.065Z,76789.63
2022-10-20T19:00:15.937Z,76785.50
2022-10-20T19:02:43.777Z,76797.84
2022-10-20T19:05:11.252Z,76795.78
2022-10-20T19:07:40.065Z,76789.63
2022-10-20T19:10:07.537Z,76787.56
2022-10-20T19:12:35.026Z,76793.75
2022-10-20T19:15:02.253Z,76789.63
2022-10-20T19:17:32.549Z,76793.75
2022-10-20T19:19:59.631Z,76787.56
2022-10-20T19:22:29.189Z,76797.84
2022-10-20T19:24:56.568Z,76804.00
2022-10-20T19:27:27.515Z,76804.00
2022-10-20T19:29:55.993Z,76806.06
2022-10-20T19:32:23.129Z,76801.97
2022-10-20T19:34:50.171Z,76810.19
2022-10-20T19:37:17.544Z,76810.19
2022-10-20T19:39:44.647Z,76812.25
2022-10-20T19:42:12.116Z,76810.19
2022-10-20T19:44:39.450Z,76812.25
2022-10-20T19:47:08.001Z,76822.50
2022-10-20T19:49:35.725Z,76814.28
2022-10-20T19:52:02.898Z,76822.50
2022-10-20T19:54:30.066Z,76818.41
2022-10-20T19:56:57.398Z,76810.19
2022-10-20T19:59:24.555Z,76801.97
2022-10-20T20:01:52.808Z,76801.97
2022-10-20T20:04:20.375Z,76814.28
2022-10-20T20:06:47.470Z,76814.28
2022-10-20T20:09:17.632Z,76814.28
2022-10-20T20:11:45.945Z,76826.63
2022-10-20T20:14:14.449Z,76818.41
2022-10-20T20:16:41.697Z,76816.34
2022-10-20T20:19:09.112Z,76818.41
2022-10-20T20:21:36.243Z,76812.25
2022-10-20T20:24:03.672Z,76820.47
2022-10-20T20:26:33.716Z,76834.84
2022-10-20T20:29:00.790Z,76828.69
2022-10-20T20:31:28.251Z,76830.75
2022-10-20T20:33:59.480Z,76830.75
2022-10-20T20:36:27.204Z,76834.84
2022-10-20T20:38:58.458Z,76826.63
2022-10-20T20:41:26.770Z,76834.84
2022-10-20T20:43:54.065Z,76847.19
2022-10-20T20:46:22.639Z,76836.91
2022-10-20T20:48:49.698Z,76830.75
2022-10-20T20:51:16.920Z,76830.75
2022-10-20T20:53:43.970Z,76834.84
2022-10-20T20:56:11.971Z,76838.97
2022-10-20T20:58:41.943Z,76834.84
2022-10-20T21:01:16.440Z,76843.06
2022-10-20T21:03:43.626Z,76843.06
2022-10-20T21:06:13.970Z,76843.06
2022-10-20T21:08:42.791Z,76841.03
2022-10-20T21:11:18.417Z,76826.63
2022-10-20T21:13:45.641Z,76830.75
2022-10-20T21:16:13.270Z,76830.75
2022-10-20T21:18:41.257Z,76834.84
2022-10-20T21:21:08.496Z,76838.97
2022-10-20T21:23:35.633Z,76832.78
2022-10-20T21:26:02.813Z,76828.69
2022-10-20T21:28:30.047Z,76830.75
2022-10-20T21:31:00.160Z,76843.06
2022-10-20T21:33:28.412Z,76838.97
2022-10-20T21:35:59.079Z,76843.06
2022-10-20T21:38:29.244Z,76845.13
2022-10-20T21:41:01.095Z,76847.19
2022-10-20T21:43:28.883Z,76838.97
2022-10-20T21:45:57.290Z,76847.19
2022-10-20T21:48:24.647Z,76847.19
2022-10-20T21:50:51.690Z,76845.13
2022-10-20T21:53:18.792Z,76847.19
2022-10-20T21:55:45.810Z,76845.13
2022-10-20T21:58:12.909Z,76847.19
2022-10-20T22:00:40.125Z,76845.13
2022-10-20T22:03:07.214Z,76855.41
2022-10-20T22:05:35.807Z,76855.41
2022-10-20T22:08:02.847Z,76851.31
2022-10-20T22:10:47.842Z,76843.06
2022-10-20T22:13:14.917Z,76841.03
2022-10-20T22:15:43.040Z,76851.31
2022-10-20T22:18:15.482Z,76851.31
2022-10-20T22:20:44.449Z,76855.41
2022-10-20T22:23:11.474Z,76855.41
2022-10-20T22:25:39.554Z,76859.53
2022-10-20T22:28:06.644Z,76859.53
2022-10-20T22:30:34.549Z,76855.41
2022-10-20T22:33:01.662Z,76855.41
2022-10-20T22:35:28.877Z,76855.41
2022-10-20T22:37:55.963Z,76863.63
2022-10-20T22:40:23.020Z,76863.63
2022-10-20T22:42:50.066Z,76867.75
2022-10-20T22:45:17.220Z,76875.97
2022-10-20T22:47:44.334Z,76880.09
2022-10-20T22:50:12.664Z,76882.13
2022-10-20T22:52:40.103Z,76888.31
2022-10-20T22:55:08.065Z,76890.34
2022-10-20T22:57:35.177Z,76875.97
2022-10-20T23:00:02.605Z,76884.19
2022-10-20T23:02:29.826Z,76894.47
2022-10-20T23:04:56.967Z,76896.53
2022-10-20T23:07:24.699Z,76902.69
2022-10-20T23:09:51.771Z,76902.69
2022-10-20T23:12:18.809Z,76910.91
2022-10-20T23:14:46.103Z,76910.91
2022-10-20T23:17:13.498Z,76896.53
2022-10-20T23:19:40.815Z,76904.75
2022-10-20T23:22:08.202Z,76908.88
2022-10-20T23:24:35.377Z,76917.09
2022-10-20T23:27:02.426Z,76925.31
2022-10-20T23:29:29.820Z,76933.53
2022-10-20T23:31:56.953Z,76933.53
2022-10-20T23:34:24.232Z,76937.66
2022-10-20T23:36:51.370Z,76933.53
2022-10-20T23:39:18.486Z,76929.41
2022-10-20T23:41:45.521Z,76933.53
2022-10-20T23:44:12.935Z,76933.53
2022-10-20T23:46:41.878Z,76949.97
2022-10-20T23:49:09.131Z,76949.97
2022-10-20T23:51:36.237Z,76958.19
2022-10-20T23:54:03.531Z,76966.44
2022-10-20T23:56:30.628Z,76966.44
2022-10-20T23:58:59.325Z,76974.66
